sensor_id;sensor_type;location;lat;lon;timestamp;pressure;altitude;pressure_sealevel;temperature;humidity
55291;BME280;41155;39.768;2.712;2024-03-22T00:01:53;101744.00;;;15.87;64.43
55291;BME280;41155;39.768;2.712;2024-03-22T00:04:18;101741.63;;;15.96;63.91
55291;BME280;41155;39.768;2.712;2024-03-22T00:06:47;101736.16;;;15.96;63.31
55291;BME280;41155;39.768;2.712;2024-03-22T00:09:14;101730.16;;;15.89;63.47
55291;BME280;41155;39.768;2.712;2024-03-22T00:11:40;101732.63;;;15.95;63.43
55291;BME280;41155;39.768;2.712;2024-03-22T00:14:07;101735.41;;;16.00;63.34
55291;BME280;41155;39.768;2.712;2024-03-22T00:16:33;101745.28;;;16.12;63.27
55291;BME280;41155;39.768;2.712;2024-03-22T00:18:58;101753.44;;;16.17;63.33
55291;BME280;41155;39.768;2.712;2024-03-22T00:21:24;101747.72;;;16.13;63.61
55291;BME280;41155;39.768;2.712;2024-03-22T00:23:52;101763.06;;;16.24;63.12
55291;BME280;41155;39.768;2.712;2024-03-22T00:26:18;101770.56;;;15.70;63.38
55291;BME280;41155;39.768;2.712;2024-03-22T00:28:43;101772.25;;;14.95;66.13
55291;BME280;41155;39.768;2.712;2024-03-22T00:31:09;101779.81;;;14.92;66.73
55291;BME280;41155;39.768;2.712;2024-03-22T00:33:35;101781.41;;;14.88;66.78
55291;BME280;41155;39.768;2.712;2024-03-22T00:36:00;101777.88;;;14.88;65.04
55291;BME280;41155;39.768;2.712;2024-03-22T00:38:26;101765.63;;;14.85;63.41
55291;BME280;41155;39.768;2.712;2024-03-22T00:40:52;101780.97;;;14.97;63.58
55291;BME280;41155;39.768;2.712;2024-03-22T00:43:17;101785.56;;;15.18;63.65
55291;BME280;41155;39.768;2.712;2024-03-22T00:45:43;101798.69;;;15.26;64.52
55291;BME280;41155;39.768;2.712;2024-03-22T00:48:08;101796.34;;;15.35;65.11
55291;BME280;41155;39.768;2.712;2024-03-22T00:50:34;101787.72;;;15.43;64.45
55291;BME280;41155;39.768;2.712;2024-03-22T00:53:00;101785.06;;;15.53;64.01
55291;BME280;41155;39.768;2.712;2024-03-22T00:55:27;101779.94;;;15.25;64.57
55291;BME280;41155;39.768;2.712;2024-03-22T00:57:53;101775.59;;;15.29;64.50
55291;BME280;41155;39.768;2.712;2024-03-22T01:00:18;101785.38;;;15.25;64.39
55291;BME280;41155;39.768;2.712;2024-03-22T01:02:44;101779.50;;;15.38;63.68
55291;BME280;41155;39.768;2.712;2024-03-22T01:05:10;101782.34;;;15.48;63.00
55291;BME280;41155;39.768;2.712;2024-03-22T01:07:36;101782.34;;;15.48;62.82
55291;BME280;41155;39.768;2.712;2024-03-22T01:10:06;101774.75;;;15.55;62.86
55291;BME280;41155;39.768;2.712;2024-03-22T01:12:31;101763.09;;;15.60;62.95
55291;BME280;41155;39.768;2.712;2024-03-22T01:14:57;101760.69;;;15.64;63.68
55291;BME280;41155;39.768;2.712;2024-03-22T01:17:23;101748.16;;;15.63;64.00
55291;BME280;41155;39.768;2.712;2024-03-22T01:19:49;101756.47;;;15.78;63.82
55291;BME280;41155;39.768;2.712;2024-03-22T01:22:16;101749.06;;;15.73;63.93
55291;BME280;41155;39.768;2.712;2024-03-22T01:24:42;101744.16;;;15.70;63.94
55291;BME280;41155;39.768;2.712;2024-03-22T01:27:07;101758.84;;;15.69;63.94
55291;BME280;41155;39.768;2.712;2024-03-22T01:29:33;101749.59;;;15.70;63.88
55291;BME280;41155;39.768;2.712;2024-03-22T01:31:58;101754.59;;;15.51;63.65
55291;BME280;41155;39.768;2.712;2024-03-22T01:34:24;101757.56;;;15.50;64.35
55291;BME280;41155;39.768;2.712;2024-03-22T01:36:51;101739.84;;;15.47;64.22
55291;BME280;41155;39.768;2.712;2024-03-22T01:39:16;101748.59;;;15.49;64.37
55291;BME280;41155;39.768;2.712;2024-03-22T01:41:43;101737.41;;;15.46;64.34
55291;BME280;41155;39.768;2.712;2024-03-22T01:44:09;101727.16;;;14.99;65.28
55291;BME280;41155;39.768;2.712;2024-03-22T01:46:34;101732.25;;;14.68;66.14
55291;BME280;41155;39.768;2.712;2024-03-22T01:49:01;101730.47;;;14.79;66.45
55291;BME280;41155;39.768;2.712;2024-03-22T01:51:26;101720.06;;;14.98;66.31
55291;BME280;41155;39.768;2.712;2024-03-22T01:53:52;101708.66;;;15.01;66.35
55291;BME280;41155;39.768;2.712;2024-03-22T01:56:19;101718.84;;;15.10;66.16
55291;BME280;41155;39.768;2.712;2024-03-22T01:58:45;101723.78;;;15.19;66.02
55291;BME280;41155;39.768;2.712;2024-03-22T02:01:11;101722.28;;;15.28;65.71
55291;BME280;41155;39.768;2.712;2024-03-22T02:03:36;101730.16;;;15.29;65.30
55291;BME280;41155;39.768;2.712;2024-03-22T02:06:02;101735.56;;;15.24;64.95
55291;BME280;41155;39.768;2.712;2024-03-22T02:08:28;101733.13;;;14.74;65.99
55291;BME280;41155;39.768;2.712;2024-03-22T02:10:53;101743.09;;;14.90;66.09
55291;BME280;41155;39.768;2.712;2024-03-22T02:13:19;101735.03;;;15.00;65.99
55291;BME280;41155;39.768;2.712;2024-03-22T02:15:44;101735.47;;;15.14;65.38
55291;BME280;41155;39.768;2.712;2024-03-22T02:18:09;101730.50;;;14.84;65.46
55291;BME280;41155;39.768;2.712;2024-03-22T02:20:35;101735.50;;;14.92;65.82
55291;BME280;41155;39.768;2.712;2024-03-22T02:23:00;101733.88;;;14.91;66.20
55291;BME280;41155;39.768;2.712;2024-03-22T02:25:26;101729.19;;;14.86;66.57
55291;BME280;41155;39.768;2.712;2024-03-22T02:27:51;101731.34;;;14.84;67.23
55291;BME280;41155;39.768;2.712;2024-03-22T02:30:20;101741.38;;;14.84;67.44
55291;BME280;41155;39.768;2.712;2024-03-22T02:32:45;101726.81;;;14.68;67.42
55291;BME280;41155;39.768;2.712;2024-03-22T02:35:11;101726.56;;;14.31;68.11
55291;BME280;41155;39.768;2.712;2024-03-22T02:37:36;101728.78;;;14.12;68.77
55291;BME280;41155;39.768;2.712;2024-03-22T02:40:02;101730.84;;;14.05;69.53
55291;BME280;41155;39.768;2.712;2024-03-22T02:42:27;101718.06;;;14.05;69.27
55291;BME280;41155;39.768;2.712;2024-03-22T02:44:53;101709.03;;;13.99;69.30
55291;BME280;41155;39.768;2.712;2024-03-22T02:47:18;101709.25;;;14.15;69.20
55291;BME280;41155;39.768;2.712;2024-03-22T02:49:44;101708.31;;;14.26;68.86
55291;BME280;41155;39.768;2.712;2024-03-22T02:52:10;101699.44;;;14.14;68.42
55291;BME280;41155;39.768;2.712;2024-03-22T02:54:35;101709.25;;;14.37;67.62
55291;BME280;41155;39.768;2.712;2024-03-22T02:57:01;101697.28;;;14.55;67.54
55291;BME280;41155;39.768;2.712;2024-03-22T02:59:27;101698.03;;;14.72;67.51
55291;BME280;41155;39.768;2.712;2024-03-22T03:01:53;101688.09;;;14.61;67.67
55291;BME280;41155;39.768;2.712;2024-03-22T03:04:18;101703.44;;;14.67;67.74
55291;BME280;41155;39.768;2.712;2024-03-22T03:06:44;101691.69;;;14.61;67.71
55291;BME280;41155;39.768;2.712;2024-03-22T03:09:11;101683.88;;;14.70;67.76
55291;BME280;41155;39.768;2.712;2024-03-22T03:11:39;101687.72;;;14.74;67.61
55291;BME280;41155;39.768;2.712;2024-03-22T03:14:04;101694.03;;;14.80;67.40
55291;BME280;41155;39.768;2.712;2024-03-22T03:16:30;101696.03;;;14.89;66.74
55291;BME280;41155;39.768;2.712;2024-03-22T03:18:55;101697.84;;;14.79;66.62
55291;BME280;41155;39.768;2.712;2024-03-22T03:21:21;101696.56;;;14.42;67.60
55291;BME280;41155;39.768;2.712;2024-03-22T03:23:47;101682.59;;;14.12;68.70
55291;BME280;41155;39.768;2.712;2024-03-22T03:26:12;101679.84;;;13.90;69.37
55291;BME280;41155;39.768;2.712;2024-03-22T03:28:38;101668.69;;;13.86;69.29
55291;BME280;41155;39.768;2.712;2024-03-22T03:31:04;101679.25;;;14.05;69.40
55291;BME280;41155;39.768;2.712;2024-03-22T03:33:30;101676.09;;;14.13;68.88
55291;BME280;41155;39.768;2.712;2024-03-22T03:35:55;101677.88;;;14.24;68.88
55291;BME280;41155;39.768;2.712;2024-03-22T03:38:21;101676.16;;;14.40;68.84
55291;BME280;41155;39.768;2.712;2024-03-22T03:40:46;101671.66;;;14.51;68.69
55291;BME280;41155;39.768;2.712;2024-03-22T03:43:12;101680.28;;;14.64;68.09
55291;BME280;41155;39.768;2.712;2024-03-22T03:45:37;101677.34;;;14.49;67.96
55291;BME280;41155;39.768;2.712;2024-03-22T03:48:03;101672.69;;;14.44;68.28
55291;BME280;41155;39.768;2.712;2024-03-22T03:50:29;101675.59;;;14.16;68.46
55291;BME280;41155;39.768;2.712;2024-03-22T03:52:54;101678.38;;;13.82;69.79
55291;BME280;41155;39.768;2.712;2024-03-22T03:55:20;101661.75;;;13.95;69.69
55291;BME280;41155;39.768;2.712;2024-03-22T03:57:45;101671.66;;;14.07;69.57
55291;BME280;41155;39.768;2.712;2024-03-22T04:00:11;101668.69;;;14.08;69.63
55291;BME280;41155;39.768;2.712;2024-03-22T04:02:37;101654.47;;;14.23;69.43
55291;BME280;41155;39.768;2.712;2024-03-22T04:05:02;101650.00;;;14.34;69.22
55291;BME280;41155;39.768;2.712;2024-03-22T04:07:28;101647.44;;;14.49;68.38
55291;BME280;41155;39.768;2.712;2024-03-22T04:09:54;101647.16;;;14.45;68.26
55291;BME280;41155;39.768;2.712;2024-03-22T04:12:20;101643.09;;;14.48;67.88
55291;BME280;41155;39.768;2.712;2024-03-22T04:14:45;101614.19;;;14.37;67.82
55291;BME280;41155;39.768;2.712;2024-03-22T04:17:11;101642.94;;;14.55;67.56
55291;BME280;41155;39.768;2.712;2024-03-22T04:19:36;101649.25;;;14.60;67.45
55291;BME280;41155;39.768;2.712;2024-03-22T04:22:02;101636.47;;;14.61;67.41
55291;BME280;41155;39.768;2.712;2024-03-22T04:24:27;101649.13;;;14.50;67.65
55291;BME280;41155;39.768;2.712;2024-03-22T04:26:53;101649.75;;;14.57;67.67
55291;BME280;41155;39.768;2.712;2024-03-22T04:29:18;101638.00;;;14.30;67.59
55291;BME280;41155;39.768;2.712;2024-03-22T04:31:44;101634.41;;;14.24;67.61
55291;BME280;41155;39.768;2.712;2024-03-22T04:34:09;101629.66;;;14.14;67.80
55291;BME280;41155;39.768;2.712;2024-03-22T04:36:35;101640.91;;;14.23;68.01
55291;BME280;41155;39.768;2.712;2024-03-22T04:39:01;101646.72;;;14.32;67.86
55291;BME280;41155;39.768;2.712;2024-03-22T04:41:26;101652.16;;;14.32;67.91
55291;BME280;41155;39.768;2.712;2024-03-22T04:43:52;101647.94;;;14.41;67.69
55291;BME280;41155;39.768;2.712;2024-03-22T04:46:17;101665.41;;;14.50;67.14
55291;BME280;41155;39.768;2.712;2024-03-22T04:48:43;101663.22;;;14.47;67.17
55291;BME280;41155;39.768;2.712;2024-03-22T04:51:08;101666.94;;;14.19;67.93
55291;BME280;41155;39.768;2.712;2024-03-22T04:53:34;101665.63;;;14.21;68.12
55291;BME280;41155;39.768;2.712;2024-03-22T04:55:59;101666.94;;;14.19;68.02
55291;BME280;41155;39.768;2.712;2024-03-22T04:58:25;101663.22;;;14.25;67.75
55291;BME280;41155;39.768;2.712;2024-03-22T05:00:56;101673.63;;;14.33;67.29
55291;BME280;41155;39.768;2.712;2024-03-22T05:03:22;101666.88;;;14.14;67.49
55291;BME280;41155;39.768;2.712;2024-03-22T05:05:49;101673.69;;;14.16;67.88
55291;BME280;41155;39.768;2.712;2024-03-22T05:08:15;101672.88;;;14.16;67.86
55291;BME280;41155;39.768;2.712;2024-03-22T05:10:40;101687.34;;;14.21;67.79
55291;BME280;41155;39.768;2.712;2024-03-22T05:13:06;101664.28;;;13.85;68.14
55291;BME280;41155;39.768;2.712;2024-03-22T05:15:31;101685.88;;;13.92;68.42
55291;BME280;41155;39.768;2.712;2024-03-22T05:17:57;101688.50;;;13.87;68.78
55291;BME280;41155;39.768;2.712;2024-03-22T05:20:23;101687.81;;;13.96;68.85
55291;BME280;41155;39.768;2.712;2024-03-22T05:22:49;101685.16;;;14.01;68.76
55291;BME280;41155;39.768;2.712;2024-03-22T05:25:14;101698.06;;;14.11;68.68
55291;BME280;41155;39.768;2.712;2024-03-22T05:27:41;101696.75;;;13.75;69.04
55291;BME280;41155;39.768;2.712;2024-03-22T05:30:08;101696.25;;;13.78;69.68
55291;BME280;41155;39.768;2.712;2024-03-22T05:32:34;101686.28;;;13.84;69.33
55291;BME280;41155;39.768;2.712;2024-03-22T05:34:59;101686.91;;;13.91;68.99
55291;BME280;41155;39.768;2.712;2024-03-22T05:37:25;101684.78;;;13.93;69.16
55291;BME280;41155;39.768;2.712;2024-03-22T05:39:50;101678.34;;;13.99;68.76
55291;BME280;41155;39.768;2.712;2024-03-22T05:42:16;101672.72;;;14.06;68.73
55291;BME280;41155;39.768;2.712;2024-03-22T05:44:41;101689.41;;;14.14;68.56
55291;BME280;41155;39.768;2.712;2024-03-22T05:47:07;101681.59;;;14.18;68.38
55291;BME280;41155;39.768;2.712;2024-03-22T05:49:32;101687.91;;;14.23;68.13
55291;BME280;41155;39.768;2.712;2024-03-22T05:51:58;101688.00;;;13.90;68.15
55291;BME280;41155;39.768;2.712;2024-03-22T05:54:23;101690.31;;;13.64;68.95
55291;BME280;41155;39.768;2.712;2024-03-22T05:56:49;101689.00;;;13.67;69.48
55291;BME280;41155;39.768;2.712;2024-03-22T05:59:14;101678.38;;;13.65;69.71
55291;BME280;41155;39.768;2.712;2024-03-22T06:01:40;101668.69;;;13.69;69.78
55291;BME280;41155;39.768;2.712;2024-03-22T06:04:05;101678.31;;;13.77;69.53
55291;BME280;41155;39.768;2.712;2024-03-22T06:06:35;101674.84;;;13.82;69.29
55291;BME280;41155;39.768;2.712;2024-03-22T06:09:01;101677.81;;;13.80;69.39
55291;BME280;41155;39.768;2.712;2024-03-22T06:11:30;101674.91;;;13.87;69.26
55291;BME280;41155;39.768;2.712;2024-03-22T06:13:55;101683.38;;;13.90;68.89
55291;BME280;41155;39.768;2.712;2024-03-22T06:16:21;101670.50;;;13.81;69.21
55291;BME280;41155;39.768;2.712;2024-03-22T06:18:47;101683.38;;;13.90;68.93
55291;BME280;41155;39.768;2.712;2024-03-22T06:21:13;101678.75;;;13.91;68.91
55291;BME280;41155;39.768;2.712;2024-03-22T06:23:40;101676.41;;;13.94;68.86
55291;BME280;41155;39.768;2.712;2024-03-22T06:26:06;101680.22;;;14.15;68.30
55291;BME280;41155;39.768;2.712;2024-03-22T06:28:32;101678.38;;;14.21;68.13
55291;BME280;41155;39.768;2.712;2024-03-22T06:30:57;101676.28;;;14.28;68.10
55291;BME280;41155;39.768;2.712;2024-03-22T06:33:23;101675.47;;;14.28;68.06
55291;BME280;41155;39.768;2.712;2024-03-22T06:35:48;101674.53;;;14.39;67.97
55291;BME280;41155;39.768;2.712;2024-03-22T06:38:14;101667.75;;;14.41;67.91
55291;BME280;41155;39.768;2.712;2024-03-22T06:40:39;101655.84;;;14.20;68.35
55291;BME280;41155;39.768;2.712;2024-03-22T06:43:05;101626.69;;;14.16;68.32
55291;BME280;41155;39.768;2.712;2024-03-22T06:45:30;101674.31;;;14.45;68.11
55291;BME280;41155;39.768;2.712;2024-03-22T06:47:56;101667.00;;;14.24;68.31
55291;BME280;41155;39.768;2.712;2024-03-22T06:50:21;101682.34;;;14.13;69.04
55291;BME280;41155;39.768;2.712;2024-03-22T06:52:52;101679.50;;;14.25;69.29
55291;BME280;41155;39.768;2.712;2024-03-22T06:55:21;101677.44;;;14.32;69.06
55291;BME280;41155;39.768;2.712;2024-03-22T06:57:49;101669.66;;;14.41;68.80
55291;BME280;41155;39.768;2.712;2024-03-22T07:00:15;101681.81;;;14.55;68.34
55291;BME280;41155;39.768;2.712;2024-03-22T07:02:41;101660.31;;;14.54;67.81
55291;BME280;41155;39.768;2.712;2024-03-22T07:05:08;101680.63;;;14.51;68.00
55291;BME280;41155;39.768;2.712;2024-03-22T07:07:37;101671.34;;;14.25;69.01
55291;BME280;41155;39.768;2.712;2024-03-22T07:10:04;101672.69;;;14.44;69.04
55291;BME280;41155;39.768;2.712;2024-03-22T07:12:33;101675.41;;;14.66;68.76
55291;BME280;41155;39.768;2.712;2024-03-22T07:15:02;101673.41;;;14.84;68.54
55291;BME280;41155;39.768;2.712;2024-03-22T07:17:28;101682.28;;;15.01;68.14
55291;BME280;41155;39.768;2.712;2024-03-22T07:19:55;101673.72;;;15.14;67.46
55291;BME280;41155;39.768;2.712;2024-03-22T07:22:21;101669.66;;;15.17;66.39
55291;BME280;41155;39.768;2.712;2024-03-22T07:24:47;101653.16;;;14.97;66.01
55291;BME280;41155;39.768;2.712;2024-03-22T07:27:14;101676.03;;;15.28;65.83
55291;BME280;41155;39.768;2.712;2024-03-22T07:29:40;101679.94;;;15.42;65.67
55291;BME280;41155;39.768;2.712;2024-03-22T07:32:06;101679.19;;;15.52;65.04
55291;BME280;41155;39.768;2.712;2024-03-22T07:34:31;101671.94;;;15.63;64.30
55291;BME280;41155;39.768;2.712;2024-03-22T07:36:57;101671.47;;;15.71;63.93
55291;BME280;41155;39.768;2.712;2024-03-22T07:39:23;101668.28;;;15.84;63.21
55291;BME280;41155;39.768;2.712;2024-03-22T07:41:49;101683.34;;;16.02;62.75
55291;BME280;41155;39.768;2.712;2024-03-22T07:44:15;101670.06;;;16.06;62.38
55291;BME280;41155;39.768;2.712;2024-03-22T07:46:43;101677.19;;;16.22;61.74
55291;BME280;41155;39.768;2.712;2024-03-22T07:49:09;101682.38;;;16.28;60.78
55291;BME280;41155;39.768;2.712;2024-03-22T07:51:35;101684.63;;;16.42;60.62
55291;BME280;41155;39.768;2.712;2024-03-22T07:54:01;101672.94;;;16.52;60.53
55291;BME280;41155;39.768;2.712;2024-03-22T07:56:26;101676.56;;;16.72;60.07
55291;BME280;41155;39.768;2.712;2024-03-22T07:58:51;101676.88;;;16.86;60.05
55291;BME280;41155;39.768;2.712;2024-03-22T08:01:17;101654.53;;;16.84;59.44
55291;BME280;41155;39.768;2.712;2024-03-22T08:03:43;101664.13;;;17.07;59.75
55291;BME280;41155;39.768;2.712;2024-03-22T08:06:08;101667.91;;;17.27;58.89
55291;BME280;41155;39.768;2.712;2024-03-22T08:08:34;101668.19;;;17.51;58.03
55291;BME280;41155;39.768;2.712;2024-03-22T08:10:59;101678.84;;;17.78;56.92
55291;BME280;41155;39.768;2.712;2024-03-22T08:13:25;101661.84;;;17.96;56.24
55291;BME280;41155;39.768;2.712;2024-03-22T08:15:50;101663.38;;;18.28;55.66
55291;BME280;41155;39.768;2.712;2024-03-22T08:18:16;101667.94;;;18.48;53.99
55291;BME280;41155;39.768;2.712;2024-03-22T08:20:41;101669.97;;;18.82;53.47
55291;BME280;41155;39.768;2.712;2024-03-22T08:23:07;101666.16;;;19.17;51.76
55291;BME280;41155;39.768;2.712;2024-03-22T08:25:32;101666.16;;;19.51;50.94
55291;BME280;41155;39.768;2.712;2024-03-22T08:27:59;101670.19;;;19.88;49.90
55291;BME280;41155;39.768;2.712;2024-03-22T08:30:25;101672.53;;;20.00;48.89
55291;BME280;41155;39.768;2.712;2024-03-22T08:32:53;101670.63;;;20.43;48.49
55291;BME280;41155;39.768;2.712;2024-03-22T08:35:19;101676.69;;;21.02;47.25
55291;BME280;41155;39.768;2.712;2024-03-22T08:37:44;101678.91;;;21.52;46.23
55291;BME280;41155;39.768;2.712;2024-03-22T08:40:11;101666.16;;;21.88;45.14
55291;BME280;41155;39.768;2.712;2024-03-22T08:42:36;101678.09;;;22.25;44.36
55291;BME280;41155;39.768;2.712;2024-03-22T08:45:02;101675.16;;;22.72;44.30
55291;BME280;41155;39.768;2.712;2024-03-22T08:47:29;101668.13;;;23.47;43.93
55291;BME280;41155;39.768;2.712;2024-03-22T08:49:55;101666.38;;;24.22;42.37
55291;BME280;41155;39.768;2.712;2024-03-22T08:52:23;101659.16;;;24.87;41.31
55291;BME280;41155;39.768;2.712;2024-03-22T08:54:50;101668.09;;;25.19;40.25
55291;BME280;41155;39.768;2.712;2024-03-22T08:57:15;101672.47;;;25.37;39.47
55291;BME280;41155;39.768;2.712;2024-03-22T08:59:41;101671.03;;;25.14;40.35
55291;BME280;41155;39.768;2.712;2024-03-22T09:02:08;101664.38;;;24.71;41.01
55291;BME280;41155;39.768;2.712;2024-03-22T09:04:33;101670.63;;;24.37;40.65
55291;BME280;41155;39.768;2.712;2024-03-22T09:06:59;101680.16;;;24.13;40.65
55291;BME280;41155;39.768;2.712;2024-03-22T09:09:24;101675.97;;;23.85;41.30
55291;BME280;41155;39.768;2.712;2024-03-22T09:11:50;101678.75;;;23.62;40.71
55291;BME280;41155;39.768;2.712;2024-03-22T09:14:15;101676.53;;;23.42;40.05
55291;BME280;41155;39.768;2.712;2024-03-22T09:16:42;101675.09;;;23.22;41.23
55291;BME280;41155;39.768;2.712;2024-03-22T09:19:08;101674.53;;;23.11;41.85
55291;BME280;41155;39.768;2.712;2024-03-22T09:21:33;101669.91;;;22.98;42.04
55291;BME280;41155;39.768;2.712;2024-03-22T09:23:59;101669.47;;;22.91;41.59
55291;BME280;41155;39.768;2.712;2024-03-22T09:26:24;101672.16;;;22.60;41.67
55291;BME280;41155;39.768;2.712;2024-03-22T09:28:50;101680.41;;;22.46;42.12
55291;BME280;41155;39.768;2.712;2024-03-22T09:31:16;101674.19;;;22.54;42.44
55291;BME280;41155;39.768;2.712;2024-03-22T09:33:42;101677.72;;;22.68;42.66
55291;BME280;41155;39.768;2.712;2024-03-22T09:36:08;101671.59;;;22.71;43.92
55291;BME280;41155;39.768;2.712;2024-03-22T09:38:33;101670.34;;;22.77;46.81
55291;BME280;41155;39.768;2.712;2024-03-22T09:40:59;101661.16;;;22.82;48.49
55291;BME280;41155;39.768;2.712;2024-03-22T09:43:26;101665.22;;;22.85;48.93
55291;BME280;41155;39.768;2.712;2024-03-22T09:45:52;101657.59;;;22.82;48.94
55291;BME280;41155;39.768;2.712;2024-03-22T09:48:19;101660.59;;;22.94;48.96
55291;BME280;41155;39.768;2.712;2024-03-22T09:50:48;101657.84;;;22.94;48.25
55291;BME280;41155;39.768;2.712;2024-03-22T09:53:18;101646.34;;;22.92;49.20
55291;BME280;41155;39.768;2.712;2024-03-22T09:55:46;101660.00;;;22.97;49.93
55291;BME280;41155;39.768;2.712;2024-03-22T09:58:12;101644.63;;;22.96;49.57
55291;BME280;41155;39.768;2.712;2024-03-22T10:00:37;101659.66;;;23.12;50.20
55291;BME280;41155;39.768;2.712;2024-03-22T10:03:03;101656.09;;;23.12;51.66
55291;BME280;41155;39.768;2.712;2024-03-22T10:05:30;101657.53;;;23.09;52.20
55291;BME280;41155;39.768;2.712;2024-03-22T10:07:55;101660.91;;;22.92;52.68
55291;BME280;41155;39.768;2.712;2024-03-22T10:10:21;101655.63;;;22.96;53.01
55291;BME280;41155;39.768;2.712;2024-03-22T10:12:47;101650.00;;;23.01;53.48
55291;BME280;41155;39.768;2.712;2024-03-22T10:15:12;101651.50;;;23.07;53.16
55291;BME280;41155;39.768;2.712;2024-03-22T10:17:39;101644.75;;;23.13;53.39
55291;BME280;41155;39.768;2.712;2024-03-22T10:20:05;101644.66;;;23.27;53.00
55291;BME280;41155;39.768;2.712;2024-03-22T10:22:38;101647.78;;;23.34;51.86
55291;BME280;41155;39.768;2.712;2024-03-22T10:25:06;101640.81;;;23.37;51.70
55291;BME280;41155;39.768;2.712;2024-03-22T10:27:32;101640.06;;;23.45;51.58
55291;BME280;41155;39.768;2.712;2024-03-22T10:29:58;101646.25;;;23.51;51.62
55291;BME280;41155;39.768;2.712;2024-03-22T10:32:24;101638.31;;;23.49;50.97
55291;BME280;41155;39.768;2.712;2024-03-22T10:34:50;101638.94;;;23.46;51.46
55291;BME280;41155;39.768;2.712;2024-03-22T10:37:16;101634.94;;;23.52;50.71
55291;BME280;41155;39.768;2.712;2024-03-22T10:39:43;101631.22;;;23.57;50.83
55291;BME280;41155;39.768;2.712;2024-03-22T10:42:11;101629.22;;;23.49;51.22
55291;BME280;41155;39.768;2.712;2024-03-22T10:44:40;101635.88;;;23.48;51.28
55291;BME280;41155;39.768;2.712;2024-03-22T10:47:09;101631.53;;;23.55;51.52
55291;BME280;41155;39.768;2.712;2024-03-22T10:49:37;101628.81;;;23.64;51.47
55291;BME280;41155;39.768;2.712;2024-03-22T10:52:05;101621.88;;;23.66;51.56
55291;BME280;41155;39.768;2.712;2024-03-22T10:54:35;101626.25;;;23.67;51.71
55291;BME280;41155;39.768;2.712;2024-03-22T10:57:04;101622.34;;;23.68;51.81
55291;BME280;41155;39.768;2.712;2024-03-22T10:59:34;101616.97;;;23.63;52.12
55291;BME280;41155;39.768;2.712;2024-03-22T11:02:03;101609.84;;;23.62;52.32
55291;BME280;41155;39.768;2.712;2024-03-22T11:04:30;101606.94;;;23.67;51.85
55291;BME280;41155;39.768;2.712;2024-03-22T11:06:59;101600.41;;;23.63;52.30
55291;BME280;41155;39.768;2.712;2024-03-22T11:09:26;101604.06;;;23.73;52.02
55291;BME280;41155;39.768;2.712;2024-03-22T11:11:52;101604.28;;;23.85;52.01
55291;BME280;41155;39.768;2.712;2024-03-22T11:14:19;101601.72;;;23.97;51.84
55291;BME280;41155;39.768;2.712;2024-03-22T11:16:46;101601.88;;;24.01;51.68
55291;BME280;41155;39.768;2.712;2024-03-22T11:19:11;101586.97;;;24.02;51.76
55291;BME280;41155;39.768;2.712;2024-03-22T11:21:37;101596.06;;;24.11;51.11
55291;BME280;41155;39.768;2.712;2024-03-22T11:24:04;101584.69;;;24.12;49.62
55291;BME280;41155;39.768;2.712;2024-03-22T11:26:30;101590.41;;;24.25;49.60
55291;BME280;41155;39.768;2.712;2024-03-22T11:28:55;101581.50;;;24.36;49.65
55291;BME280;41155;39.768;2.712;2024-03-22T11:31:22;101586.03;;;24.41;48.38
55291;BME280;41155;39.768;2.712;2024-03-22T11:33:53;101585.91;;;24.55;47.80
55291;BME280;41155;39.768;2.712;2024-03-22T11:36:18;101584.94;;;24.60;47.33
55291;BME280;41155;39.768;2.712;2024-03-22T11:38:44;101578.63;;;24.68;47.56
55291;BME280;41155;39.768;2.712;2024-03-22T11:41:10;101572.44;;;24.79;47.19
55291;BME280;41155;39.768;2.712;2024-03-22T11:43:36;101563.66;;;24.69;46.67
55291;BME280;41155;39.768;2.712;2024-03-22T11:46:02;101561.84;;;24.73;46.66
55291;BME280;41155;39.768;2.712;2024-03-22T11:48:27;101566.06;;;24.79;46.69
55291;BME280;41155;39.768;2.712;2024-03-22T11:50:53;101565.41;;;24.82;46.55
55291;BME280;41155;39.768;2.712;2024-03-22T11:53:21;101565.72;;;24.89;46.27
55291;BME280;41155;39.768;2.712;2024-03-22T11:55:49;101565.72;;;24.98;45.90
55291;BME280;41155;39.768;2.712;2024-03-22T11:58:14;101573.34;;;25.01;45.48
55291;BME280;41155;39.768;2.712;2024-03-22T12:00:41;101554.31;;;25.08;45.18
55291;BME280;41155;39.768;2.712;2024-03-22T12:03:07;101561.97;;;25.20;44.48
55291;BME280;41155;39.768;2.712;2024-03-22T12:05:33;101543.91;;;25.14;42.76
55291;BME280;41155;39.768;2.712;2024-03-22T12:07:58;101558.69;;;25.27;42.30
55291;BME280;41155;39.768;2.712;2024-03-22T12:10:24;101558.03;;;25.30;41.75
55291;BME280;41155;39.768;2.712;2024-03-22T12:12:49;101551.66;;;25.38;40.79
55291;BME280;41155;39.768;2.712;2024-03-22T12:15:15;101553.09;;;25.44;41.01
55291;BME280;41155;39.768;2.712;2024-03-22T12:17:43;101544.28;;;25.51;40.64
55291;BME280;41155;39.768;2.712;2024-03-22T12:20:09;101545.19;;;25.63;40.49
55291;BME280;41155;39.768;2.712;2024-03-22T12:22:35;101537.97;;;25.71;40.85
55291;BME280;41155;39.768;2.712;2024-03-22T12:25:01;101537.28;;;25.83;40.85
55291;BME280;41155;39.768;2.712;2024-03-22T12:27:27;101531.91;;;25.86;41.09
55291;BME280;41155;39.768;2.712;2024-03-22T12:29:52;101535.25;;;25.92;40.91
55291;BME280;41155;39.768;2.712;2024-03-22T12:32:18;101525.41;;;25.82;40.09
55291;BME280;41155;39.768;2.712;2024-03-22T12:34:43;101529.78;;;25.83;40.41
55291;BME280;41155;39.768;2.712;2024-03-22T12:37:09;101526.72;;;25.76;40.24
55291;BME280;41155;39.768;2.712;2024-03-22T12:39:35;101513.75;;;25.68;40.93
55291;BME280;41155;39.768;2.712;2024-03-22T12:42:03;101510.00;;;25.73;41.14
55291;BME280;41155;39.768;2.712;2024-03-22T12:44:28;101524.56;;;25.82;41.45